METAR πλησιέστερων αεροδρομίων

 

LGIR - Iraklion Airport
Απόσταση από το σταθμό: ΒΔ 62km
Ενημερώθηκε: 14/05/2021 22:20
Αίθριος
Αίθριος
 Ανεμος από Ν
Ανεμος: Ν 11 km/h
Θερμοκρασία: 17°C
Σημείο Δρόσου: 13°C
Υγρασία: 77%
Βαρόμετρο: 1015 hPa
Περίληψη: Αίθριος
Ορατότητα: μεγαλύτερη από 10 km
2021/05/14 19:20 LGIR 141920Z 17006KT CAVOK 17/13 Q1015 NOSIG
LGSA - Souda/Chania Airport
Απόσταση από το σταθμό: ΔΒΔ 154km
Ενημερώθηκε: 14/05/2021 22:20
Αίθριος
Αίθριος
 Ανεμος από Δ
Ανεμος: Δ 15 km/h
Θερμοκρασία: 19°C
Σημείο Δρόσου: 12°C
Υγρασία: 64%
Βαρόμετρο: 1014 hPa
Περίληψη: Αίθριος
Ορατότητα: μεγαλύτερη από 10 km
2021/05/14 19:20 LGSA 141920Z 26008KT CAVOK 19/12 Q1014